Lihue, HI

4:00 AM HST on April 26, 2017 (GMT -1000)
Lihue | | Change Station

Elev 151 ft 21.98 °N, 159.34 °W | Updated 7 minutes ago

Partly Cloudy
Partly Cloudy
76 °F
Feels Like 76 °F
N
10
Wind Variable Wind from ENE

Today
High -- | Low -- °F
--% Chance of Precip.
Yesterday
High -- | Low -- °F
Precip. -- in
Pressure 30.08 in
Visibility 10.0 miles
Clouds Scattered Clouds 1900 ft
Dew Point 69 °F
Humidity 79%
Rainfall 0.45 in
Snow Depth Not available.
6:08 AM 7:01 PM
New Moon, 0% visible
METAR PHLI 261353Z 07009KT 10SM SCT019 24/21 A3009 RMK AO2 SLP185 T02440206
Pressure 30.08 in
Visibility 10.0 miles
Clouds Scattered Clouds 1900 ft
Dew Point 69 °F
Humidity 79%
Rainfall 0.45 in
Snow Depth Not available.
6:08 AM 7:01 PM
New Moon, 0% visible
METAR PHLI 261353Z 07009KT 10SM SCT019 24/21 A3009 RMK AO2 SLP185 T02440206

Get Severe Weather Alerts

Thanks for signing up!

Be on the lookout for a verification email in your inbox.

You'll start receiving the daily forecast at 8 AM.

×

10-Day Weather Forecast

Almanac

Astronomy

Apr. 26, 2017 Rise Set
Actual Time
Civil Twilight
Nautical Twilight
Astronomical Twilight
Moon
Length of Visible Light
Length of Day
Tomorrow will be .
, % of the Moon is Illuminated

Today's Extremes

State Highs State Lows

Community

WunderPhotos

WunderBlog® & News

Nearby

Air Quality

  Air Quality AQ Index Pollutant
Not available.

Snow Depth

Station Depth Elevation

Earthquake Activity

City Distance Mag. Time & Date
Minimum magnitude displayed is 2.5.

Coastal Water Temperatures

Place Temperature

Stations

Nearby Weather Stations

Station Location Temp. Windchill Dew Point Humidity Wind Precip. Elev Updated Type
                   

Watches & Warnings

There are currently no watches in effect.